Time;durP1;ratioP1;P1;durP2;ratioP2;P2;SDS_P1;SDS_P2;PMS_P1;PMS_P2;Temp;Humidity;BMP_temperature;BMP_pressure;BME280_temperature;BME280_humidity;BME280_pressure;Samples;Min_cycle;Max_cycle;Signal;HPM_P1;HPM_P2
2021/03/15 00:00:31;;;;;;;53.92;39.05;;;;;;;10.75;68.25;99819.81;1762900;81;21131;-56
2021/03/15 00:02:59;;;;;;;60.45;39.33;;;;;;;10.74;68.16;99820.71;1714864;84;21155;-61
2021/03/15 00:05:27;;;;;;;55.55;38.10;;;;;;;10.79;68.07;99816.21;1774775;80;21179;-61
2021/03/15 00:07:56;;;;;;;51.80;37.88;;;;;;;10.86;67.95;99818.25;1783264;80;21168;-61
2021/03/15 00:10:24;;;;;;;56.60;39.35;;;;;;;10.88;67.97;99807.23;1748160;82;21130;-61
2021/03/15 00:12:53;;;;;;;57.97;39.37;;;;;;;10.90;67.96;99812.02;1749698;80;21116;-55
2021/03/15 00:15:22;;;;;;;52.62;37.45;;;;;;;10.88;68.03;99803.75;1778062;81;21163;-56
2021/03/15 00:17:51;;;;;;;56.10;37.73;;;;;;;10.88;68.07;99807.23;1778761;81;21176;-61
2021/03/15 00:20:21;;;;;;;49.30;32.03;;;;;;;10.91;68.12;99808.95;1777946;80;21107;-61
2021/03/15 00:22:49;;;;;;;53.02;35.58;;;;;;;10.93;68.10;99800.56;1735980;82;21147;-55
2021/03/15 00:25:18;;;;;;;51.48;32.60;;;;;;;10.90;68.32;99800.63;1761598;80;21170;-61
2021/03/15 00:27:46;;;;;;;49.50;33.20;;;;;;;10.93;68.26;99796.61;1756763;81;21155;-61
2021/03/15 00:30:17;;;;;;;51.73;34.35;;;;;;;10.93;68.28;99791.35;1756196;82;21121;-56
2021/03/15 00:32:46;;;;;;;54.27;35.68;;;;;;;10.93;68.26;99790.88;1757143;80;21567;-61
2021/03/15 00:35:17;;;;;;;56.35;36.38;;;;;;;10.91;68.32;99790.05;1749638;82;21175;-61
2021/03/15 00:37:45;;;;;;;52.83;35.63;;;;;;;10.94;68.31;99790.45;1751454;80;21193;-55
2021/03/15 00:40:19;;;;;;;49.13;32.90;;;;;;;10.96;68.28;99782.06;1758480;80;21174;-56
2021/03/15 00:42:47;;;;;;;50.83;35.90;;;;;;;10.96;68.22;99778.97;1758228;80;21178;-61
2021/03/15 00:45:15;;;;;;;54.25;35.25;;;;;;;11.00;68.18;99774.52;1756403;82;21178;-61
2021/03/15 00:47:44;;;;;;;52.05;35.43;;;;;;;10.99;68.11;99774.95;1767634;80;21203;-62
2021/03/15 00:50:31;;;;;;;52.85;35.08;;;;;;;10.97;68.10;99779.84;1766679;80;21135;-56
2021/03/15 00:53:00;;;;;;;59.05;37.45;;;;;;;10.91;68.32;99766.36;1749694;82;21131;-61
2021/03/15 00:55:28;;;;;;;53.68;36.68;;;;;;;10.89;68.36;99767.31;1749644;82;21194;-56
2021/03/15 00:57:56;;;;;;;54.15;37.53;;;;;;;10.80;68.50;99760.50;1756508;80;21171;-61
2021/03/15 01:00:32;;;;;;;49.50;37.33;;;;;;;10.85;68.32;99760.80;1782810;80;21142;-56
2021/03/15 01:03:14;;;;;;;50.92;36.15;;;;;;;10.83;68.50;99756.45;1821052;77;22189;-59
2021/03/15 01:05:48;;;;;;;49.33;37.33;;;;;;;10.82;68.47;99750.77;1792202;80;21138;-60
2021/03/15 01:08:27;;;;;;;54.25;39.08;;;;;;;10.88;68.31;99745.36;1838188;77;22112;-59
2021/03/15 01:10:55;;;;;;;53.48;40.08;;;;;;;10.86;68.28;99742.78;1793600;80;21264;-59
2021/03/15 01:13:25;;;;;;;53.58;37.78;;;;;;;10.85;68.30;99745.44;1762286;81;21289;-54
2021/03/15 01:15:53;;;;;;;50.20;35.98;;;;;;;10.84;68.35;99744.58;1762345;80;21137;-54
2021/03/15 01:18:21;;;;;;;51.50;37.05;;;;;;;10.78;68.47;99746.51;1783907;80;21098;-60
2021/03/15 01:20:50;;;;;;;48.25;36.63;;;;;;;10.76;68.60;99753.11;1728289;83;21166;-54
2021/03/15 01:23:18;;;;;;;44.75;37.15;;;;;;;10.84;68.36;99748.53;1758295;81;21186;-60
2021/03/15 01:25:46;;;;;;;49.85;36.30;;;;;;;10.87;68.21;99738.37;1709826;81;21515;-54
2021/03/15 01:28:15;;;;;;;51.05;37.75;;;;;;;10.85;68.27;99746.31;1728015;81;21135;-54
2021/03/15 01:30:44;;;;;;;52.30;38.28;;;;;;;10.75;68.54;99743.94;1732538;83;21182;-54
2021/03/15 01:33:12;;;;;;;45.28;34.83;;;;;;;10.71;68.57;99745.77;1732415;83;21162;-54
2021/03/15 01:35:40;;;;;;;50.98;36.93;;;;;;;10.72;68.43;99734.33;1719560;83;21327;-59
2021/03/15 01:38:08;;;;;;;44.38;35.90;;;;;;;10.64;68.52;99738.47;1703006;83;21694;-54
2021/03/15 01:40:37;;;;;;;45.15;33.67;;;;;;;10.72;68.28;99733.02;1703002;84;21320;-60
2021/03/15 01:43:05;;;;;;;42.55;32.55;;;;;;;10.70;68.25;99734.81;1703773;83;21138;-59
2021/03/15 01:45:33;;;;;;;38.08;31.07;;;;;;;10.68;68.10;99733.98;1710435;83;21156;-60
2021/03/15 01:48:03;;;;;;;48.45;33.65;;;;;;;10.69;67.92;99730.02;1703006;84;21233;-59
2021/03/15 01:50:32;;;;;;;43.30;31.45;;;;;;;10.63;67.81;99730.16;1703164;83;21315;-56
2021/03/15 01:53:00;;;;;;;34.53;27.13;;;;;;;10.62;67.71;99731.06;1703962;83;21202;-55
2021/03/15 01:55:28;;;;;;;37.20;28.00;;;;;;;10.60;67.61;99723.65;1703416;83;21263;-61
2021/03/15 01:57:55;;;;;;;36.90;26.15;;;;;;;10.57;67.41;99721.08;1703128;83;21194;-56
2021/03/15 02:00:23;;;;;;;31.20;24.55;;;;;;;10.50;67.08;99724.31;1675330;84;21221;-62
2021/03/15 02:03:03;;;;;;;36.00;24.90;;;;;;;10.48;67.12;99724.80;1736383;81;21162;-55
2021/03/15 02:05:38;;;;;;;38.38;25.80;;;;;;;10.52;66.73;99722.95;1698090;84;21153;-55
2021/03/15 02:08:06;;;;;;;31.23;22.07;;;;;;;10.45;66.71;99730.56;1686940;83;21757;-61
2021/03/15 02:10:34;;;;;;;35.38;24.18;;;;;;;10.39;66.69;99731.11;1749007;82;21137;-61
2021/03/15 02:13:24;;;;;;;31.75;23.50;;;;;;;10.38;66.53;99731.12;1772528;81;21131;-61
2021/03/15 02:16:00;;;;;;;34.38;23.83;;;;;;;10.33;66.47;99731.23;1758191;80;21103;-54
2021/03/15 02:18:58;;;;;;;29.87;21.60;;;;;;;10.26;66.34;99727.84;1748464;82;21171;-56
2021/03/15 02:22:08;;;;;;;35.20;23.20;;;;;;;10.24;65.84;99726.17;1762826;81;21142;-62
2021/03/15 02:25:00;;;;;;;29.05;21.17;;;;;;;10.09;66.04;99730.84;1741580;82;21183;-60
2021/03/15 02:27:48;;;;;;;31.55;20.52;;;;;;;10.05;66.02;99724.38;1748074;82;21729;-61
2021/03/15 02:30:36;;;;;;;29.45;19.45;;;;;;;10.00;65.87;99727.08;1758752;81;21107;-55
2021/03/15 02:33:46;;;;;;;28.87;19.07;;;;;;;9.97;65.82;99725.83;1778923;81;21331;-60
2021/03/15 02:36:14;;;;;;;29.67;19.70;;;;;;;9.97;65.70;99730.66;1779182;81;21202;-60
2021/03/15 02:38:43;;;;;;;24.98;17.65;;;;;;;9.92;65.51;99735.59;1757229;81;21151;-60
2021/03/15 02:41:11;;;;;;;26.65;18.17;;;;;;;9.87;65.35;99736.98;1752904;81;21163;-55
2021/03/15 02:43:52;;;;;;;26.10;18.25;;;;;;;9.81;65.26;99739.73;1747995;82;21210;-55
2021/03/15 02:46:21;;;;;;;27.70;17.73;;;;;;;9.72;65.18;99737.27;1748200;82;21091;-54
2021/03/15 02:48:53;;;;;;;24.02;16.20;;;;;;;9.70;64.90;99744.34;1763101;80;21146;-54
2021/03/15 02:51:22;;;;;;;;;;;;;;;9.59;64.91;99738.84;1781729;81;21159;-55
2021/03/15 02:53:49;;;;;;;25.50;15.90;;;;;;;9.51;64.99;99737.64;1757957;81;20421;-61
2021/03/15 02:56:22;;;;;;;25.85;16.30;;;;;;;9.45;65.11;99736.89;1682252;82;21281;-61
2021/03/15 02:58:53;;;;;;;22.62;15.48;;;;;;;9.41;65.22;99732.16;1756813;80;21241;-55
2021/03/15 03:01:21;;;;;;;22.75;15.65;;;;;;;9.41;65.32;99732.16;1748444;82;21157;-54
2021/03/15 03:03:52;;;;;;;20.12;14.95;;;;;;;9.43;65.16;99736.94;1764045;81;21155;-61
2021/03/15 03:06:22;;;;;;;23.32;16.00;;;;;;;9.41;65.20;99731.28;1711954;82;21188;-60
2021/03/15 03:08:51;;;;;;;24.45;15.83;;;;;;;9.41;65.12;99729.96;1749631;81;21305;-60
2021/03/15 03:11:20;;;;;;;27.73;15.30;;;;;;;9.41;65.00;99729.96;1748984;81;21122;-60
2021/03/15 03:13:49;;;;;;;24.87;16.42;;;;;;;9.36;64.93;99726.12;1748037;82;21150;-60
2021/03/15 03:16:19;;;;;;;22.73;15.63;;;;;;;9.37;64.80;99717.34;1756710;81;21642;-55
2021/03/15 03:18:49;;;;;;;17.30;13.43;;;;;;;9.31;64.48;99723.55;1748354;82;21186;-61
2021/03/15 03:21:16;;;;;;;23.77;14.53;;;;;;;9.22;64.42;99725.91;1748435;82;21183;-55
2021/03/15 03:23:44;;;;;;;22.00;14.93;;;;;;;9.15;64.30;99721.64;1727793;82;21170;-55
2021/03/15 03:26:11;;;;;;;22.35;14.70;;;;;;;9.07;64.17;99719.59;1774749;81;21578;-55
2021/03/15 03:28:39;;;;;;;25.02;14.58;;;;;;;8.97;64.14;99718.88;1778832;80;21159;-54
2021/03/15 03:31:08;;;;;;;19.98;13.03;;;;;;;8.89;64.12;99720.33;1749431;81;21100;-60
2021/03/15 03:33:36;;;;;;;22.85;15.00;;;;;;;8.82;64.04;99712.59;1765970;80;21135;-61
2021/03/15 03:36:06;;;;;;;21.62;14.83;;;;;;;8.74;64.01;99714.00;1756924;81;21526;-61
2021/03/15 03:38:35;;;;;;;20.82;14.03;;;;;;;8.66;64.06;99708.88;1778479;80;21147;-55
2021/03/15 03:41:03;;;;;;;28.00;15.78;;;;;;;8.55;64.25;99715.61;1772611;81;21136;-54
2021/03/15 03:43:31;;;;;;;22.20;14.50;;;;;;;8.49;64.25;99709.13;1770195;80;21146;-60
2021/03/15 03:45:58;;;;;;;21.85;14.70;;;;;;;8.44;64.29;99709.14;1778818;80;21155;-54
2021/03/15 03:48:28;;;;;;;22.20;13.98;;;;;;;8.41;64.29;99710.95;1741728;82;21171;-54
2021/03/15 03:50:56;;;;;;;22.30;14.63;;;;;;;8.38;64.34;99708.38;1689159;84;21168;-60
2021/03/15 03:53:33;;;;;;;20.52;14.43;;;;;;;8.36;64.33;99699.66;1717585;82;21163;-54
2021/03/15 03:56:14;;;;;;;22.45;14.73;;;;;;;8.33;64.37;99694.03;1741674;82;21772;-54
2021/03/15 03:58:48;;;;;;;21.87;14.93;;;;;;;8.34;64.44;99699.70;1741743;82;21317;-54
2021/03/15 04:01:16;;;;;;;23.83;15.15;;;;;;;8.36;64.44;99692.68;1770543;81;21606;-54
2021/03/15 04:03:48;;;;;;;23.02;15.03;;;;;;;8.38;64.45;99692.64;1727198;82;21337;-54
2021/03/15 04:06:15;;;;;;;23.50;14.90;;;;;;;8.39;64.39;99690.45;1727097;82;21317;-61
2021/03/15 04:09:01;;;;;;;22.77;14.90;;;;;;;8.41;64.24;99692.60;1749111;81;21142;-54
2021/03/15 04:11:33;;;;;;;22.05;14.70;;;;;;;8.42;64.18;99695.19;1756365;81;21095;-54
2021/03/15 04:14:01;;;;;;;20.45;14.63;;;;;;;8.44;64.17;99697.80;1760717;81;21154;-55
2021/03/15 04:16:34;;;;;;;21.37;14.25;;;;;;;8.44;64.05;99700.42;1755274;80;21164;-54
2021/03/15 04:19:04;;;;;;;20.85;14.58;;;;;;;8.41;63.92;99687.36;1758447;81;21704;-61
2021/03/15 04:21:33;;;;;;;20.13;13.53;;;;;;;8.36;63.83;99691.37;1756847;81;21099;-61
2021/03/15 04:24:01;;;;;;;19.67;13.18;;;;;;;8.31;63.80;99695.34;1748097;82;21580;-61
2021/03/15 04:26:30;;;;;;;16.55;11.57;;;;;;;8.27;63.76;99691.49;1750021;80;21155;-61
2021/03/15 04:28:58;;;;;;;17.73;12.03;;;;;;;8.21;63.93;99687.64;1741309;81;21242;-55
2021/03/15 04:31:26;;;;;;;21.15;11.80;;;;;;;8.16;64.17;99687.25;1758944;80;21286;-55
2021/03/15 04:33:55;;;;;;;16.82;10.68;;;;;;;8.17;64.59;99688.11;1749934;81;21143;-55
2021/03/15 04:36:23;;;;;;;16.62;10.18;;;;;;;8.21;64.90;99685.02;1752303;81;21176;-60
2021/03/15 04:38:50;;;;;;;18.65;10.70;;;;;;;8.24;64.99;99686.29;1757595;81;21131;-55
2021/03/15 04:41:18;;;;;;;18.02;10.58;;;;;;;8.26;64.96;99683.20;1714924;83;21641;-55
2021/03/15 04:43:48;;;;;;;15.48;9.35;;;;;;;8.30;64.97;99686.20;1752928;81;21139;-61
2021/03/15 04:46:19;;;;;;;14.93;8.78;;;;;;;8.31;65.28;99679.61;1758021;81;21590;-55
2021/03/15 04:48:47;;;;;;;19.15;9.85;;;;;;;8.35;65.49;99679.14;1755737;80;21132;-61
2021/03/15 04:51:17;;;;;;;15.40;8.83;;;;;;;8.41;65.64;99676.41;1751351;81;21226;-55
2021/03/15 04:53:45;;;;;;;16.75;8.53;;;;;;;8.48;65.94;99683.33;1779089;81;21622;-54
2021/03/15 04:56:15;;;;;;;17.05;7.87;;;;;;;8.56;66.01;99674.48;1777573;80;21623;-60
2021/03/15 04:58:47;;;;;;;15.90;8.98;;;;;;;8.63;66.05;99684.00;1777583;81;21272;-54
2021/03/15 05:01:15;;;;;;;14.00;8.68;;;;;;;8.70;66.22;99684.76;1763122;80;21206;-60
2021/03/15 05:03:43;;;;;;;19.62;9.08;;;;;;;8.78;66.26;99678.95;1751612;81;21127;-60
2021/03/15 05:06:12;;;;;;;19.37;9.45;;;;;;;8.88;66.29;99680.97;1742005;81;21167;-54
2021/03/15 05:08:52;;;;;;;15.90;9.33;;;;;;;8.95;66.29;99685.69;1726761;82;21178;-60
2021/03/15 05:11:22;;;;;;;;;;;;;;;9.00;66.41;99683.40;1723232;83;21181;-60
2021/03/15 05:13:49;;;;;;;12.47;6.62;;;;;;;9.06;66.55;99680.67;1727647;82;20257;-60
2021/03/15 05:16:17;;;;;;;17.05;7.15;;;;;;;9.16;66.48;99683.14;1711742;83;21624;-55
2021/03/15 05:18:44;;;;;;;15.80;8.23;;;;;;;9.21;66.55;99687.41;1758183;81;21146;-60
2021/03/15 05:21:12;;;;;;;12.65;8.33;;;;;;;9.30;66.57;99684.20;1758252;81;21593;-55
2021/03/15 05:23:39;;;;;;;21.35;7.85;;;;;;;9.35;66.72;99688.47;1765711;80;21138;-55
2021/03/15 05:26:07;;;;;;;17.50;7.85;;;;;;;9.45;66.65;99689.61;1702114;81;21248;-58
2021/03/15 05:28:35;;;;;;;16.57;7.33;;;;;;;9.58;66.55;99691.55;1758407;81;21308;-54
2021/03/15 05:31:04;;;;;;;19.05;6.92;;;;;;;9.58;66.84;99692.87;1729313;81;21165;-54
2021/03/15 05:33:33;;;;;;;13.55;6.67;;;;;;;9.65;66.95;99685.29;1764152;80;21138;-54
2021/03/15 05:36:01;;;;;;;14.00;6.25;;;;;;;9.78;66.88;99691.16;1745204;80;21252;-54
2021/03/15 05:38:30;;;;;;;19.15;7.95;;;;;;;9.82;66.95;99691.09;1775619;80;21323;-56
2021/03/15 05:40:59;;;;;;;14.38;7.03;;;;;;;9.90;66.89;99684.81;1750263;80;21158;-60
2021/03/15 05:43:44;;;;;;;15.65;6.85;;;;;;;9.97;66.80;99687.27;1770101;80;21159;-60
2021/03/15 05:46:40;;;;;;;20.35;7.95;;;;;;;10.03;66.92;99692.84;1777798;80;21554;-60
2021/03/15 05:49:38;;;;;;;18.95;8.43;;;;;;;10.10;66.78;99689.65;1762453;80;21186;-61
2021/03/15 05:52:33;;;;;;;21.65;8.25;;;;;;;10.19;66.78;99690.74;1766616;80;21304;-62
2021/03/15 05:55:52;;;;;;;14.05;6.83;;;;;;;10.34;66.70;99692.62;1758673;81;21178;-54
2021/03/15 05:58:53;;;;;;;11.43;6.70;;;;;;;10.47;66.76;99697.19;1758579;81;21174;-55
2021/03/15 06:01:41;;;;;;;14.18;6.92;;;;;;;10.60;66.43;99695.16;1782832;80;21308;-62
2021/03/15 06:04:38;;;;;;;14.18;6.55;;;;;;;10.68;66.38;99707.23;1738063;82;21135;-54
2021/03/15 06:07:08;;;;;;;17.75;6.60;;;;;;;10.79;66.37;99703.02;1780333;80;21130;-59
2021/03/15 06:09:42;;;;;;;17.15;6.65;;;;;;;10.91;66.30;99703.64;1785911;80;21126;-54
2021/03/15 06:12:21;;;;;;;14.68;6.50;;;;;;;11.00;66.32;99694.20;1756122;80;21180;-53
2021/03/15 06:14:49;;;;;;;14.73;5.75;;;;;;;11.12;66.40;99699.13;1755490;81;21151;-53
2021/03/15 06:17:16;;;;;;;15.50;6.37;;;;;;;11.24;66.11;99701.92;1774639;81;21167;-54
2021/03/15 06:19:44;;;;;;;13.18;6.28;;;;;;;11.37;66.18;99700.27;1761279;80;21131;-60
2021/03/15 06:22:12;;;;;;;16.90;6.50;;;;;;;11.45;65.61;99699.17;1787555;80;21196;-60
2021/03/15 06:24:40;;;;;;;13.30;5.97;;;;;;;11.60;65.80;99698.33;1787424;80;21178;-54
2021/03/15 06:27:09;;;;;;;16.42;7.17;;;;;;;11.70;65.83;99698.49;1776519;80;21150;-53
2021/03/15 06:29:37;;;;;;;24.07;7.22;;;;;;;11.85;65.69;99693.70;1755887;80;21138;-54
2021/03/15 06:32:06;;;;;;;14.87;6.45;;;;;;;11.93;64.60;99704.02;1718389;83;21131;-54
2021/03/15 06:34:34;;;;;;;12.45;5.78;;;;;;;12.01;64.60;99701.59;1726308;82;21147;-61
2021/03/15 06:37:02;;;;;;;14.95;6.35;;;;;;;12.09;64.17;99697.44;1771715;80;21199;-54
2021/03/15 06:39:33;;;;;;;13.50;5.78;;;;;;;12.16;64.22;99704.23;1763100;80;21613;-54
2021/03/15 06:42:01;;;;;;;13.60;6.62;;;;;;;12.22;63.51;99708.48;1750684;80;21183;-54
2021/03/15 06:44:30;;;;;;;12.33;6.00;;;;;;;12.37;63.84;99703.19;1763384;80;21146;-55
2021/03/15 06:46:57;;;;;;;16.65;7.40;;;;;;;12.46;63.01;99706.88;1768785;80;21190;-55
2021/03/15 06:49:25;;;;;;;15.90;6.28;;;;;;;12.58;63.15;99702.98;1757211;80;21660;-61
2021/03/15 06:52:08;;;;;;;12.33;6.25;;;;;;;12.66;62.44;99701.88;1755935;82;21150;-60
2021/03/15 06:54:36;;;;;;;16.85;6.90;;;;;;;12.74;61.76;99698.55;1756106;82;21174;-61
2021/03/15 06:57:20;;;;;;;15.33;7.57;;;;;;;12.84;61.39;99696.46;1754351;80;21163;-62
2021/03/15 06:59:55;;;;;;;18.02;6.95;;;;;;;12.93;61.21;99698.33;1750488;82;21202;-60
2021/03/15 07:02:28;;;;;;;11.63;5.83;;;;;;;13.09;60.71;99692.08;1755665;80;21126;-62
2021/03/15 07:05:13;;;;;;;17.98;7.30;;;;;;;13.21;60.05;99696.55;1786969;80;21602;-55
2021/03/15 07:07:56;;;;;;;13.28;6.20;;;;;;;13.27;59.54;99702.06;1751886;81;21181;-53
2021/03/15 07:10:33;;;;;;;15.18;7.00;;;;;;;13.27;58.71;99696.78;1747952;82;21593;-55
2021/03/15 07:13:10;;;;;;;18.15;7.15;;;;;;;13.33;58.27;99696.58;1748056;82;21211;-55
2021/03/15 07:15:39;;;;;;;17.17;7.33;;;;;;;13.28;58.55;99698.07;1747266;81;21555;-55
2021/03/15 07:18:23;;;;;;;12.70;6.58;;;;;;;13.20;58.15;99704.07;1719798;82;21167;-54
2021/03/15 07:20:53;;;;;;;12.05;6.75;;;;;;;13.06;57.52;99705.86;1731454;82;21558;-55
2021/03/15 07:23:50;;;;;;;15.98;6.97;;;;;;;13.07;58.06;99705.80;1752317;80;21143;-62
2021/03/15 07:26:31;;;;;;;12.70;6.50;;;;;;;13.07;57.78;99704.47;1757705;81;21200;-55
2021/03/15 07:28:59;;;;;;;13.72;7.15;;;;;;;13.00;57.81;99704.30;1712373;84;21147;-56
2021/03/15 07:31:32;;;;;;;13.10;5.80;;;;;;;13.00;58.07;99699.02;1771731;81;21180;-55
2021/03/15 07:34:06;;;;;;;14.63;7.03;;;;;;;13.08;58.26;99701.39;1755724;81;21324;-62
2021/03/15 07:36:46;;;;;;;13.25;6.62;;;;;;;13.18;58.20;99688.72;1779109;81;21577;-54
2021/03/15 07:39:15;;;;;;;14.15;7.25;;;;;;;13.28;57.91;99685.30;1769903;81;21119;-55
2021/03/15 07:41:47;;;;;;;14.13;6.90;;;;;;;13.38;57.66;99687.59;1752845;81;21127;-62
2021/03/15 07:44:26;;;;;;;14.30;6.65;;;;;;;13.45;57.05;99692.70;1748979;81;21310;-55
2021/03/15 07:46:59;;;;;;;12.03;5.85;;;;;;;13.47;56.07;99692.16;1712483;84;21174;-62
2021/03/15 07:49:30;;;;;;;12.85;5.78;;;;;;;13.55;56.35;99688.78;1759836;81;21111;-62
2021/03/15 07:52:04;;;;;;;12.98;6.45;;;;;;;13.51;55.20;99689.81;1753190;81;21131;-54
2021/03/15 07:54:36;;;;;;;12.95;5.92;;;;;;;13.63;55.97;99690.70;1761951;81;21352;-54
2021/03/15 07:57:23;;;;;;;12.03;5.80;;;;;;;13.71;55.97;99693.06;1779147;80;21156;-61
2021/03/15 07:59:57;;;;;;;13.22;6.40;;;;;;;13.75;55.77;99688.55;1759694;81;21281;-56
2021/03/15 08:02:29;;;;;;;13.25;6.10;;;;;;;13.81;55.38;99681.70;1744168;81;21163;-55
2021/03/15 08:04:59;;;;;;;13.78;5.90;;;;;;;13.83;55.52;99686.01;1764919;81;21123;-62
2021/03/15 08:07:28;;;;;;;13.30;6.22;;;;;;;13.85;55.35;99690.38;1762285;80;21301;-55
2021/03/15 08:09:59;;;;;;;13.40;5.85;;;;;;;13.87;55.57;99687.22;1779787;80;21602;-62
2021/03/15 08:12:37;;;;;;;11.18;5.53;;;;;;;13.90;55.43;99676.08;1780927;80;21138;-56
2021/03/15 08:15:09;;;;;;;11.78;5.45;;;;;;;13.96;55.46;99686.88;1776475;80;21583;-57
2021/03/15 08:17:45;;;;;;;15.28;6.95;;;;;;;14.01;55.52;99674.80;1769120;80;21147;-63
2021/03/15 08:20:15;;;;;;;11.45;5.15;;;;;;;14.06;54.84;99680.78;1754509;82;21187;-57
2021/03/15 08:22:45;;;;;;;12.95;5.65;;;;;;;14.17;55.23;99673.74;1686007;83;21199;-63
2021/03/15 08:25:13;;;;;;;18.42;6.20;;;;;;;14.27;55.07;99677.32;1756403;82;21631;-57
2021/03/15 08:27:43;;;;;;;13.48;5.47;;;;;;;14.36;54.28;99674.77;1766017;80;21609;-57
2021/03/15 08:30:21;;;;;;;13.88;6.55;;;;;;;14.40;52.89;99671.52;1787213;80;21312;-63
2021/03/15 08:32:49;;;;;;;12.25;4.92;;;;;;;14.50;53.09;99672.05;1760405;80;21122;-64
2021/03/15 08:35:18;;;;;;;15.45;6.03;;;;;;;14.42;53.10;99669.67;1761465;80;21178;-57
2021/03/15 08:38:00;;;;;;;10.18;5.10;;;;;;;14.42;53.06;99665.70;1760288;80;21293;-57
2021/03/15 08:40:45;;;;;;;13.20;6.50;;;;;;;14.24;53.50;99672.14;1764763;81;21152;-63
2021/03/15 08:43:22;;;;;;;14.43;5.95;;;;;;;14.25;54.38;99677.84;1780308;80;21099;-54
2021/03/15 08:46:01;;;;;;;16.23;5.75;;;;;;;14.35;54.42;99673.52;1765579;80;21113;-60
2021/03/15 08:48:43;;;;;;;20.95;8.08;;;;;;;14.53;53.62;99665.30;1756175;81;21162;-61
2021/03/15 08:51:14;;;;;;;18.48;5.85;;;;;;;14.61;53.32;99668.48;1756201;80;21099;-61
2021/03/15 08:53:48;;;;;;;13.88;4.75;;;;;;;14.64;53.13;99667.03;1732041;82;21250;-55
2021/03/15 08:56:23;;;;;;;14.70;5.55;;;;;;;14.64;52.90;99662.21;1759944;80;21267;-61
2021/03/15 08:58:57;;;;;;;14.28;7.12;;;;;;;14.69;53.25;99662.45;1755977;82;21154;-55
2021/03/15 09:01:47;;;;;;;13.38;7.00;;;;;;;14.67;51.09;99659.44;1763224;80;21273;-61
2021/03/15 09:04:42;;;;;;;13.83;5.20;;;;;;;14.78;52.55;99644.01;1759217;80;21201;-61
2021/03/15 09:10:30;;;;;;;12.33;4.25;;;;;;;14.95;51.15;99642.42;1831374;77;22171;-57
2021/03/15 09:13:15;;;;;;;11.05;4.22;;;;;;;15.09;51.89;99635.20;1780772;80;21333;-60
2021/03/15 09:15:45;;;;;;;13.45;4.47;;;;;;;15.31;52.14;99641.31;1793322;80;21150;-54
2021/03/15 09:18:41;;;;;;;10.88;4.28;;;;;;;15.47;52.13;99636.63;1792941;80;21154;-53
2021/03/15 09:21:28;;;;;;;7.37;4.12;;;;;;;15.21;52.14;99641.31;1788763;80;21142;-60
2021/03/15 09:24:00;;;;;;;11.38;4.33;;;;;;;15.60;51.05;99639.62;1762044;81;21146;-54
2021/03/15 09:26:32;;;;;;;13.43;4.58;;;;;;;15.81;50.84;99632.93;1757518;81;21162;-60
2021/03/15 09:29:03;;;;;;;11.10;4.08;;;;;;;15.78;49.00;99634.39;1766470;80;21091;-54
2021/03/15 09:31:31;;;;;;;12.33;4.40;;;;;;;15.75;49.49;99636.25;1735220;81;21725;-60
2021/03/15 09:34:00;;;;;;;10.43;4.78;;;;;;;15.75;48.95;99634.93;1764849;80;21151;-53
2021/03/15 09:36:29;;;;;;;14.80;5.22;;;;;;;15.68;48.49;99634.81;1753629;80;21153;-54
2021/03/15 09:38:58;;;;;;;12.73;4.37;;;;;;;15.65;48.91;99631.45;1779820;80;21166;-53
2021/03/15 09:41:26;;;;;;;13.43;4.33;;;;;;;15.71;49.37;99633.83;1770169;80;21141;-59
2021/03/15 09:43:55;;;;;;;13.43;4.95;;;;;;;15.86;49.39;99626.53;1762109;81;21145;-60
2021/03/15 09:46:26;;;;;;;11.53;4.20;;;;;;;16.02;49.33;99631.10;1772384;80;21134;-54
2021/03/15 09:48:55;;;;;;;9.03;4.15;;;;;;;16.07;48.28;99631.75;1772125;80;21170;-54
2021/03/15 09:51:27;;;;;;;12.07;4.95;;;;;;;16.06;48.05;99624.72;1788004;80;21170;-60
2021/03/15 09:54:01;;;;;;;10.80;4.92;;;;;;;16.03;48.11;99620.44;1784182;80;21138;-60
2021/03/15 09:56:30;;;;;;;;;;;;;;;15.99;48.21;99621.51;1784484;80;21131;-57
2021/03/15 09:59:10;;;;;;;10.98;5.62;;;;;;;15.91;47.79;99621.00;1767460;80;20277;-63
2021/03/15 10:01:47;;;;;;;11.53;5.10;;;;;;;15.91;48.15;99615.69;1761758;81;21195;-62
2021/03/15 10:04:38;;;;;;;11.75;4.03;;;;;;;15.83;48.59;99624.44;1761771;81;21167;-58
2021/03/15 10:07:26;;;;;;;12.93;4.47;;;;;;;15.85;47.43;99618.14;1783456;80;21138;-56
2021/03/15 10:10:17;;;;;;;11.30;4.72;;;;;;;15.61;47.24;99622.30;1781123;80;21146;-57
2021/03/15 10:13:05;;;;;;;10.45;4.30;;;;;;;15.96;47.71;99616.79;1766239;81;21176;-57
2021/03/15 10:15:35;;;;;;;9.48;3.92;;;;;;;15.96;47.71;99616.79;1766478;80;21103;-57
2021/03/15 10:18:05;;;;;;;10.30;3.85;;;;;;;16.23;47.30;99613.78;1751018;80;21151;-56
2021/03/15 10:20:45;;;;;;;24.23;12.43;;;;;;;16.58;47.02;99601.89;1834789;77;22144;-55
2021/03/15 10:23:19;;;;;;;12.37;6.33;;;;;;;16.81;45.70;99603.39;1740062;82;21166;-55
2021/03/15 10:26:02;;;;;;;14.30;7.30;;;;;;;17.13;43.82;99603.56;1734609;82;21134;-56
2021/03/15 10:28:33;;;;;;;13.70;5.45;;;;;;;17.29;43.10;99597.45;1707349;84;21135;-62
2021/03/15 10:31:07;;;;;;;;;;;;;;;17.21;42.92;99590.73;1713492;84;21116;-57
2021/03/15 10:33:37;;;;;;;10.45;4.03;;;;;;;17.29;42.69;99581.50;1712316;83;20628;-57
2021/03/15 10:36:05;;;;;;;7.00;3.45;;;;;;;17.19;42.75;99586.45;1676365;83;21295;-63
2021/03/15 10:38:33;;;;;;;20.30;9.85;;;;;;;17.33;43.25;99588.38;1714586;84;21611;-62
2021/03/15 10:41:03;;;;;;;54.27;26.25;;;;;;;17.29;42.26;99577.02;1714175;84;21669;-62
2021/03/15 10:43:31;;;;;;;12.82;4.53;;;;;;;17.45;43.22;99569.56;1716885;83;21147;-62
2021/03/15 10:46:21;;;;;;;11.10;3.55;;;;;;;17.46;42.51;99569.95;1831885;77;22587;-55
2021/03/15 10:48:50;;;;;;;17.92;8.18;;;;;;;17.32;41.89;99577.34;1761915;81;21183;-63
2021/03/15 10:51:19;;;;;;;10.75;3.92;;;;;;;17.09;42.21;99574.96;1749690;81;21143;-63
2021/03/15 10:53:58;;;;;;;14.83;5.08;;;;;;;17.02;42.44;99560.27;1843966;77;22148;-55
2021/03/15 10:56:32;;;;;;;8.88;3.47;;;;;;;16.90;42.44;99563.52;1786947;78;21135;-57
2021/03/15 10:59:32;;;;;;;16.75;8.48;;;;;;;16.82;42.37;99559.06;1815433;77;22135;-62
2021/03/15 11:02:01;;;;;;;;;;;;;;;16.62;42.67;99563.12;1777166;78;21136;-56
2021/03/15 11:04:34;;;;;;;7.20;3.47;;;;;;;16.69;42.58;99558.39;1760871;81;20423;-56
2021/03/15 11:07:25;;;;;;;9.33;3.42;;;;;;;16.82;43.24;99557.28;1760363;81;21633;-57
2021/03/15 11:10:00;;;;;;;7.90;3.07;;;;;;;16.91;43.64;99546.19;1737546;81;21701;-63
2021/03/15 11:12:41;;;;;;;13.13;4.20;;;;;;;17.02;43.53;99542.11;1730712;81;21549;-57
2021/03/15 11:15:37;;;;;;;7.20;3.65;;;;;;;17.01;43.40;99544.37;1730844;81;21198;-56
2021/03/15 11:18:23;;;;;;;12.03;3.65;;;;;;;16.88;42.30;99542.35;1739709;81;21107;-55
2021/03/15 11:20:56;;;;;;;32.53;16.27;;;;;;;16.75;42.70;99535.94;1739046;81;21099;-56
2021/03/15 11:23:51;;;;;;;10.10;4.45;;;;;;;16.77;43.19;99520.78;1834750;77;22152;-62
2021/03/15 11:26:21;;;;;;;20.77;10.35;;;;;;;16.77;43.37;99521.66;1784463;80;21162;-61
2021/03/15 11:28:54;;;;;;;46.77;24.55;;;;;;;16.88;43.08;99521.09;1754752;81;21157;-55
2021/03/15 11:31:27;;;;;;;15.72;7.22;;;;;;;16.96;42.48;99526.02;1731763;81;21182;-58
2021/03/15 11:34:00;;;;;;;9.73;3.77;;;;;;;17.12;41.60;99514.59;1762094;81;21167;-58
2021/03/15 11:36:46;;;;;;;69.30;41.60;;;;;;;16.38;42.56;99522.72;1790521;77;28148;-56
2021/03/15 11:39:16;;;;;;;36.60;19.85;;;;;;;16.26;42.86;99522.88;1742354;81;21110;-63
2021/03/15 11:41:54;;;;;;;12.20;4.17;;;;;;;17.05;41.07;99515.38;1806479;77;22605;-61
2021/03/15 11:44:23;;;;;;;29.75;15.35;;;;;;;17.00;41.79;99518.28;1761874;81;21138;-61
2021/03/15 11:46:51;;;;;;;22.05;10.75;;;;;;;16.94;41.94;99515.45;1761129;81;21138;-62
2021/03/15 11:49:21;;;;;;;17.60;7.70;;;;;;;16.88;42.23;99507.80;1760541;81;21165;-64
2021/03/15 11:52:00;;;;;;;8.65;4.00;;;;;;;16.87;42.34;99507.41;1759781;81;21552;-62
2021/03/15 11:54:32;;;;;;;26.68;11.10;;;;;;;16.78;42.13;99515.38;1756202;81;21589;-57
2021/03/15 11:57:01;;;;;;;9.03;3.87;;;;;;;16.63;42.20;99511.72;1748006;81;21166;-57
2021/03/15 11:59:29;;;;;;;19.05;8.58;;;;;;;16.48;41.96;99517.83;1761736;81;21166;-57